sensor_id;sensor_type;location;lat;lon;timestamp;temperature;humidity
60033;DHT22;45905;50.570;10.428;2023-08-08T00:01:58;12.30;99.90
60033;DHT22;45905;50.570;10.428;2023-08-08T00:04:26;12.10;99.90
60033;DHT22;45905;50.570;10.428;2023-08-08T00:06:53;12.10;99.90
60033;DHT22;45905;50.570;10.428;2023-08-08T00:09:20;12.00;99.90
60033;DHT22;45905;50.570;10.428;2023-08-08T00:11:48;12.10;99.90
60033;DHT22;45905;50.570;10.428;2023-08-08T00:14:15;12.10;99.90
60033;DHT22;45905;50.570;10.428;2023-08-08T00:16:42;12.10;99.90
60033;DHT22;45905;50.570;10.428;2023-08-08T00:19:10;12.00;99.90
60033;DHT22;45905;50.570;10.428;2023-08-08T00:21:37;12.00;99.90
60033;DHT22;45905;50.570;10.428;2023-08-08T00:24:04;12.00;99.90
60033;DHT22;45905;50.570;10.428;2023-08-08T00:26:32;11.90;99.90
60033;DHT22;45905;50.570;10.428;2023-08-08T00:28:59;11.90;99.90
60033;DHT22;45905;50.570;10.428;2023-08-08T00:31:26;11.80;99.90
60033;DHT22;45905;50.570;10.428;2023-08-08T00:33:53;11.90;99.90
60033;DHT22;45905;50.570;10.428;2023-08-08T00:36:21;11.80;99.90
60033;DHT22;45905;50.570;10.428;2023-08-08T00:38:48;11.90;99.90
60033;DHT22;45905;50.570;10.428;2023-08-08T00:43:43;11.70;99.90
60033;DHT22;45905;50.570;10.428;2023-08-08T00:46:11;11.70;99.90
60033;DHT22;45905;50.570;10.428;2023-08-08T00:48:38;11.80;99.90
60033;DHT22;45905;50.570;10.428;2023-08-08T00:51:06;11.70;99.90
60033;DHT22;45905;50.570;10.428;2023-08-08T00:53:33;11.60;99.90
60033;DHT22;45905;50.570;10.428;2023-08-08T00:56:00;11.70;99.90
60033;DHT22;45905;50.570;10.428;2023-08-08T00:58:27;11.60;99.90
60033;DHT22;45905;50.570;10.428;2023-08-08T01:00:55;11.60;99.90
60033;DHT22;45905;50.570;10.428;2023-08-08T01:03:26;11.60;99.90
60033;DHT22;45905;50.570;10.428;2023-08-08T01:06:19;11.50;99.90
60033;DHT22;45905;50.570;10.428;2023-08-08T01:09:02;11.50;99.90
60033;DHT22;45905;50.570;10.428;2023-08-08T01:11:37;11.40;99.90
60033;DHT22;45905;50.570;10.428;2023-08-08T01:14:05;11.30;99.90
60033;DHT22;45905;50.570;10.428;2023-08-08T01:16:35;11.50;99.90
60033;DHT22;45905;50.570;10.428;2023-08-08T01:19:04;11.20;99.90
60033;DHT22;45905;50.570;10.428;2023-08-08T01:21:35;11.50;99.90
60033;DHT22;45905;50.570;10.428;2023-08-08T01:24:24;11.40;99.90
60033;DHT22;45905;50.570;10.428;2023-08-08T01:26:59;11.50;99.90
60033;DHT22;45905;50.570;10.428;2023-08-08T01:29:27;11.40;99.90
60033;DHT22;45905;50.570;10.428;2023-08-08T01:31:55;11.40;99.90
60033;DHT22;45905;50.570;10.428;2023-08-08T01:34:23;11.40;99.90
60033;DHT22;45905;50.570;10.428;2023-08-08T01:39:30;11.50;99.90
60033;DHT22;45905;50.570;10.428;2023-08-08T01:41:59;11.40;99.90
60033;DHT22;45905;50.570;10.428;2023-08-08T01:44:28;11.30;99.90
60033;DHT22;45905;50.570;10.428;2023-08-08T01:46:56;11.50;99.90
60033;DHT22;45905;50.570;10.428;2023-08-08T01:49:23;11.40;99.90
60033;DHT22;45905;50.570;10.428;2023-08-08T01:51:51;11.30;99.90
60033;DHT22;45905;50.570;10.428;2023-08-08T01:54:19;11.20;99.90
60033;DHT22;45905;50.570;10.428;2023-08-08T01:56:46;11.40;99.90
60033;DHT22;45905;50.570;10.428;2023-08-08T01:59:14;11.50;99.90
60033;DHT22;45905;50.570;10.428;2023-08-08T02:01:42;11.50;99.90
60033;DHT22;45905;50.570;10.428;2023-08-08T02:04:09;11.30;99.90
60033;DHT22;45905;50.570;10.428;2023-08-08T02:06:37;11.10;99.90
60033;DHT22;45905;50.570;10.428;2023-08-08T02:09:04;11.40;99.90
60033;DHT22;45905;50.570;10.428;2023-08-08T02:11:34;11.40;99.90
60033;DHT22;45905;50.570;10.428;2023-08-08T02:14:01;11.30;99.90
60033;DHT22;45905;50.570;10.428;2023-08-08T02:16:28;11.50;99.90
60033;DHT22;45905;50.570;10.428;2023-08-08T02:18:56;11.40;99.90
60033;DHT22;45905;50.570;10.428;2023-08-08T02:21:23;11.40;99.90
60033;DHT22;45905;50.570;10.428;2023-08-08T02:23:50;11.50;99.90
60033;DHT22;45905;50.570;10.428;2023-08-08T02:26:17;11.30;99.90
60033;DHT22;45905;50.570;10.428;2023-08-08T02:33:41;12.30;99.90
60033;DHT22;45905;50.570;10.428;2023-08-08T02:36:08;11.40;99.90
60033;DHT22;45905;50.570;10.428;2023-08-08T02:38:37;11.40;99.90
60033;DHT22;45905;50.570;10.428;2023-08-08T02:41:05;11.40;99.90
60033;DHT22;45905;50.570;10.428;2023-08-08T02:43:32;11.50;99.90
60033;DHT22;45905;50.570;10.428;2023-08-08T02:45:59;11.60;99.90
60033;DHT22;45905;50.570;10.428;2023-08-08T02:48:27;11.40;99.90
60033;DHT22;45905;50.570;10.428;2023-08-08T02:50:55;11.50;99.90
60033;DHT22;45905;50.570;10.428;2023-08-08T02:53:25;11.70;99.90
60033;DHT22;45905;50.570;10.428;2023-08-08T02:55:52;11.60;99.90
60033;DHT22;45905;50.570;10.428;2023-08-08T02:58:20;11.60;99.90
60033;DHT22;45905;50.570;10.428;2023-08-08T03:00:48;11.40;99.90
60033;DHT22;45905;50.570;10.428;2023-08-08T03:03:16;16.30;99.90
60033;DHT22;45905;50.570;10.428;2023-08-08T03:05:45;11.40;99.90
60033;DHT22;45905;50.570;10.428;2023-08-08T03:08:15;11.60;99.90
60033;DHT22;45905;50.570;10.428;2023-08-08T03:10:42;11.70;99.90
60033;DHT22;45905;50.570;10.428;2023-08-08T03:13:10;11.60;99.90
60033;DHT22;45905;50.570;10.428;2023-08-08T03:15:38;11.50;99.90
60033;DHT22;45905;50.570;10.428;2023-08-08T03:18:06;11.60;99.90
60033;DHT22;45905;50.570;10.428;2023-08-08T03:20:34;11.60;99.90
60033;DHT22;45905;50.570;10.428;2023-08-08T03:23:02;11.60;99.90
60033;DHT22;45905;50.570;10.428;2023-08-08T03:30:25;11.60;99.90
60033;DHT22;45905;50.570;10.428;2023-08-08T03:32:53;11.80;99.90
60033;DHT22;45905;50.570;10.428;2023-08-08T03:35:20;11.40;99.90
60033;DHT22;45905;50.570;10.428;2023-08-08T03:40:16;12.00;99.90
60033;DHT22;45905;50.570;10.428;2023-08-08T03:42:43;11.80;99.90
60033;DHT22;45905;50.570;10.428;2023-08-08T03:45:11;11.50;99.90
60033;DHT22;45905;50.570;10.428;2023-08-08T03:47:38;11.50;99.90
60033;DHT22;45905;50.570;10.428;2023-08-08T03:50:06;11.80;99.90
60033;DHT22;45905;50.570;10.428;2023-08-08T03:52:34;11.80;99.90
60033;DHT22;45905;50.570;10.428;2023-08-08T03:55:08;11.80;99.90
60033;DHT22;45905;50.570;10.428;2023-08-08T03:57:36;11.80;99.90
60033;DHT22;45905;50.570;10.428;2023-08-08T04:00:04;11.80;99.90
60033;DHT22;45905;50.570;10.428;2023-08-08T04:02:38;11.70;99.90
60033;DHT22;45905;50.570;10.428;2023-08-08T04:05:07;11.80;99.90
60033;DHT22;45905;50.570;10.428;2023-08-08T04:07:34;11.60;99.90
60033;DHT22;45905;50.570;10.428;2023-08-08T04:10:01;11.90;99.90
60033;DHT22;45905;50.570;10.428;2023-08-08T04:12:29;11.40;99.90
60033;DHT22;45905;50.570;10.428;2023-08-08T04:14:56;11.40;99.90
60033;DHT22;45905;50.570;10.428;2023-08-08T04:22:19;11.80;99.90
60033;DHT22;45905;50.570;10.428;2023-08-08T04:24:46;11.70;99.90
60033;DHT22;45905;50.570;10.428;2023-08-08T04:27:14;11.80;99.90
60033;DHT22;45905;50.570;10.428;2023-08-08T04:29:41;11.80;99.90
60033;DHT22;45905;50.570;10.428;2023-08-08T04:32:08;11.70;99.90
60033;DHT22;45905;50.570;10.428;2023-08-08T04:34:36;11.80;99.90
60033;DHT22;45905;50.570;10.428;2023-08-08T04:39:31;11.70;99.90
60033;DHT22;45905;50.570;10.428;2023-08-08T04:41:58;11.80;99.90
60033;DHT22;45905;50.570;10.428;2023-08-08T04:44:26;11.70;99.90
60033;DHT22;45905;50.570;10.428;2023-08-08T04:46:53;11.70;99.90
60033;DHT22;45905;50.570;10.428;2023-08-08T04:49:20;11.70;99.90
60033;DHT22;45905;50.570;10.428;2023-08-08T04:51:47;11.80;99.90
60033;DHT22;45905;50.570;10.428;2023-08-08T04:54:15;11.60;99.90
60033;DHT22;45905;50.570;10.428;2023-08-08T04:56:42;11.70;99.90
60033;DHT22;45905;50.570;10.428;2023-08-08T04:59:09;12.10;99.90
60033;DHT22;45905;50.570;10.428;2023-08-08T05:01:36;11.80;99.90
60033;DHT22;45905;50.570;10.428;2023-08-08T05:04:03;11.70;99.90
60033;DHT22;45905;50.570;10.428;2023-08-08T05:06:31;11.50;99.90
60033;DHT22;45905;50.570;10.428;2023-08-08T05:08:58;11.50;99.90
60033;DHT22;45905;50.570;10.428;2023-08-08T05:11:25;9.20;99.90
60033;DHT22;45905;50.570;10.428;2023-08-08T05:13:52;11.70;99.90
60033;DHT22;45905;50.570;10.428;2023-08-08T05:16:19;11.90;99.90
60033;DHT22;45905;50.570;10.428;2023-08-08T05:18:47;11.80;99.90
60033;DHT22;45905;50.570;10.428;2023-08-08T05:21:14;11.90;99.90
60033;DHT22;45905;50.570;10.428;2023-08-08T05:23:41;11.90;99.90
60033;DHT22;45905;50.570;10.428;2023-08-08T05:26:08;11.90;99.90
60033;DHT22;45905;50.570;10.428;2023-08-08T05:28:36;11.80;99.90
60033;DHT22;45905;50.570;10.428;2023-08-08T05:31:03;12.00;99.90
60033;DHT22;45905;50.570;10.428;2023-08-08T05:33:30;11.70;99.90
60033;DHT22;45905;50.570;10.428;2023-08-08T05:35:59;11.90;99.90
60033;DHT22;45905;50.570;10.428;2023-08-08T05:38:27;12.20;99.90
60033;DHT22;45905;50.570;10.428;2023-08-08T05:40:54;12.00;99.90
60033;DHT22;45905;50.570;10.428;2023-08-08T05:43:21;12.70;99.90
60033;DHT22;45905;50.570;10.428;2023-08-08T05:45:48;12.10;99.90
60033;DHT22;45905;50.570;10.428;2023-08-08T05:48:16;11.80;99.90
60033;DHT22;45905;50.570;10.428;2023-08-08T05:50:43;11.80;99.90
60033;DHT22;45905;50.570;10.428;2023-08-08T05:53:10;11.90;99.90
60033;DHT22;45905;50.570;10.428;2023-08-08T05:55:43;12.00;99.90
60033;DHT22;45905;50.570;10.428;2023-08-08T05:58:10;12.10;99.90
60033;DHT22;45905;50.570;10.428;2023-08-08T06:00:39;12.30;99.90
60033;DHT22;45905;50.570;10.428;2023-08-08T06:03:07;12.30;99.90
60033;DHT22;45905;50.570;10.428;2023-08-08T06:05:34;12.70;99.90
60033;DHT22;45905;50.570;10.428;2023-08-08T06:08:01;12.50;99.90
60033;DHT22;45905;50.570;10.428;2023-08-08T06:10:28;12.50;99.90
60033;DHT22;45905;50.570;10.428;2023-08-08T06:12:56;12.80;99.90
60033;DHT22;45905;50.570;10.428;2023-08-08T06:15:23;12.70;99.90
60033;DHT22;45905;50.570;10.428;2023-08-08T06:17:50;12.70;99.90
60033;DHT22;45905;50.570;10.428;2023-08-08T06:20:17;12.70;99.90
60033;DHT22;45905;50.570;10.428;2023-08-08T06:22:45;12.90;99.90
60033;DHT22;45905;50.570;10.428;2023-08-08T06:25:12;12.90;99.90
60033;DHT22;45905;50.570;10.428;2023-08-08T06:27:40;12.80;99.90
60033;DHT22;45905;50.570;10.428;2023-08-08T06:30:07;12.50;99.90
60033;DHT22;45905;50.570;10.428;2023-08-08T06:32:35;12.90;99.90
60033;DHT22;45905;50.570;10.428;2023-08-08T06:35:02;13.20;99.90
60033;DHT22;45905;50.570;10.428;2023-08-08T06:37:30;12.90;99.90
60033;DHT22;45905;50.570;10.428;2023-08-08T06:39:57;13.10;99.90
60033;DHT22;45905;50.570;10.428;2023-08-08T06:42:24;13.10;99.90
60033;DHT22;45905;50.570;10.428;2023-08-08T06:44:56;13.30;99.90
60033;DHT22;45905;50.570;10.428;2023-08-08T06:47:23;13.10;99.90
60033;DHT22;45905;50.570;10.428;2023-08-08T06:49:50;13.40;99.90
60033;DHT22;45905;50.570;10.428;2023-08-08T06:52:17;13.20;99.90
60033;DHT22;45905;50.570;10.428;2023-08-08T06:54:45;13.30;99.90
60033;DHT22;45905;50.570;10.428;2023-08-08T06:57:12;12.90;99.90
60033;DHT22;45905;50.570;10.428;2023-08-08T07:04:35;13.50;99.90
60033;DHT22;45905;50.570;10.428;2023-08-08T07:07:03;13.60;99.90
60033;DHT22;45905;50.570;10.428;2023-08-08T07:09:30;13.10;99.90
60033;DHT22;45905;50.570;10.428;2023-08-08T07:11:57;13.20;99.90
60033;DHT22;45905;50.570;10.428;2023-08-08T07:14:25;17.60;99.90
60033;DHT22;45905;50.570;10.428;2023-08-08T07:16:52;13.50;99.90
60033;DHT22;45905;50.570;10.428;2023-08-08T07:19:20;13.60;99.90
60033;DHT22;45905;50.570;10.428;2023-08-08T07:21:48;13.60;99.90
60033;DHT22;45905;50.570;10.428;2023-08-08T07:24:15;13.60;99.90
60033;DHT22;45905;50.570;10.428;2023-08-08T07:26:43;13.70;99.90
60033;DHT22;45905;50.570;10.428;2023-08-08T07:29:10;13.70;99.90
60033;DHT22;45905;50.570;10.428;2023-08-08T07:31:37;13.80;99.90
60033;DHT22;45905;50.570;10.428;2023-08-08T07:34:04;13.80;99.90
60033;DHT22;45905;50.570;10.428;2023-08-08T07:36:31;13.80;99.90
60033;DHT22;45905;50.570;10.428;2023-08-08T07:38:59;13.90;99.90
60033;DHT22;45905;50.570;10.428;2023-08-08T07:41:29;13.90;99.90
60033;DHT22;45905;50.570;10.428;2023-08-08T07:43:57;13.90;99.90
60033;DHT22;45905;50.570;10.428;2023-08-08T07:46:24;14.00;99.90
60033;DHT22;45905;50.570;10.428;2023-08-08T07:48:51;14.10;99.90
60033;DHT22;45905;50.570;10.428;2023-08-08T07:51:18;14.30;99.90
60033;DHT22;45905;50.570;10.428;2023-08-08T07:53:46;13.90;99.90
60033;DHT22;45905;50.570;10.428;2023-08-08T07:56:13;14.40;99.90
60033;DHT22;45905;50.570;10.428;2023-08-08T07:58:40;14.40;99.90
60033;DHT22;45905;50.570;10.428;2023-08-08T08:01:07;14.50;99.90
60033;DHT22;45905;50.570;10.428;2023-08-08T08:03:36;14.70;99.90
60033;DHT22;45905;50.570;10.428;2023-08-08T08:06:04;16.60;99.90
60033;DHT22;45905;50.570;10.428;2023-08-08T08:08:31;14.80;99.90
60033;DHT22;45905;50.570;10.428;2023-08-08T08:10:58;14.90;99.90
60033;DHT22;45905;50.570;10.428;2023-08-08T08:13:26;14.80;99.90
60033;DHT22;45905;50.570;10.428;2023-08-08T08:15:53;15.00;99.90
60033;DHT22;45905;50.570;10.428;2023-08-08T08:18:20;15.00;99.90
60033;DHT22;45905;50.570;10.428;2023-08-08T08:20:48;15.10;99.90
60033;DHT22;45905;50.570;10.428;2023-08-08T08:23:16;15.20;99.90
60033;DHT22;45905;50.570;10.428;2023-08-08T08:25:43;15.30;99.50
60033;DHT22;45905;50.570;10.428;2023-08-08T08:28:10;15.40;98.70
60033;DHT22;45905;50.570;10.428;2023-08-08T08:30:37;15.50;98.90
60033;DHT22;45905;50.570;10.428;2023-08-08T08:33:05;15.60;98.30
60033;DHT22;45905;50.570;10.428;2023-08-08T08:35:35;15.70;98.30
60033;DHT22;45905;50.570;10.428;2023-08-08T08:38:03;15.60;98.10
60033;DHT22;45905;50.570;10.428;2023-08-08T08:40:35;15.80;97.00
60033;DHT22;45905;50.570;10.428;2023-08-08T08:43:07;15.80;96.80
60033;DHT22;45905;50.570;10.428;2023-08-08T08:45:38;15.80;96.60
60033;DHT22;45905;50.570;10.428;2023-08-08T08:48:12;15.90;96.60
60033;DHT22;45905;50.570;10.428;2023-08-08T08:50:44;15.90;97.50
60033;DHT22;45905;50.570;10.428;2023-08-08T08:53:14;16.00;97.30
60033;DHT22;45905;50.570;10.428;2023-08-08T08:55:43;16.10;96.70
60033;DHT22;45905;50.570;10.428;2023-08-08T08:58:14;16.20;96.60
60033;DHT22;45905;50.570;10.428;2023-08-08T09:00:44;16.20;95.40
60033;DHT22;45905;50.570;10.428;2023-08-08T09:03:13;16.20;95.60
60033;DHT22;45905;50.570;10.428;2023-08-08T09:05:41;16.30;95.20
60033;DHT22;45905;50.570;10.428;2023-08-08T09:08:10;16.30;95.60
60033;DHT22;45905;50.570;10.428;2023-08-08T09:10:39;16.30;94.20
60033;DHT22;45905;50.570;10.428;2023-08-08T09:13:06;16.40;94.30
60033;DHT22;45905;50.570;10.428;2023-08-08T09:15:34;16.40;94.30
60033;DHT22;45905;50.570;10.428;2023-08-08T09:18:02;16.40;94.60
60033;DHT22;45905;50.570;10.428;2023-08-08T09:20:29;16.30;94.90
60033;DHT22;45905;50.570;10.428;2023-08-08T09:22:57;16.50;94.20
60033;DHT22;45905;50.570;10.428;2023-08-08T09:25:26;16.50;94.20
60033;DHT22;45905;50.570;10.428;2023-08-08T09:27:53;16.50;94.60
60033;DHT22;45905;50.570;10.428;2023-08-08T09:30:21;16.50;94.20
60033;DHT22;45905;50.570;10.428;2023-08-08T09:32:49;16.50;93.60
60033;DHT22;45905;50.570;10.428;2023-08-08T09:35:16;16.70;93.80
60033;DHT22;45905;50.570;10.428;2023-08-08T09:37:45;16.80;93.40
60033;DHT22;45905;50.570;10.428;2023-08-08T09:40:13;16.90;94.20
60033;DHT22;45905;50.570;10.428;2023-08-08T09:42:40;16.80;93.30
60033;DHT22;45905;50.570;10.428;2023-08-08T09:45:09;16.80;93.80
60033;DHT22;45905;50.570;10.428;2023-08-08T09:47:37;16.90;93.20
60033;DHT22;45905;50.570;10.428;2023-08-08T09:50:06;16.90;93.20
60033;DHT22;45905;50.570;10.428;2023-08-08T09:52:35;16.90;93.40
60033;DHT22;45905;50.570;10.428;2023-08-08T10:00:04;17.50;94.00
60033;DHT22;45905;50.570;10.428;2023-08-08T10:02:35;17.20;93.30
60033;DHT22;45905;50.570;10.428;2023-08-08T10:05:04;17.20;93.70
60033;DHT22;45905;50.570;10.428;2023-08-08T10:07:32;17.30;93.20
60033;DHT22;45905;50.570;10.428;2023-08-08T10:09:59;17.30;93.70
60033;DHT22;45905;50.570;10.428;2023-08-08T10:12:28;17.30;94.00
60033;DHT22;45905;50.570;10.428;2023-08-08T10:15:02;16.80;93.10
60033;DHT22;45905;50.570;10.428;2023-08-08T10:17:38;17.40;93.10
60033;DHT22;45905;50.570;10.428;2023-08-08T10:20:11;17.40;93.60
60033;DHT22;45905;50.570;10.428;2023-08-08T10:22:54;17.50;93.10
60033;DHT22;45905;50.570;10.428;2023-08-08T10:25:27;17.50;93.20
60033;DHT22;45905;50.570;10.428;2023-08-08T10:28:06;17.60;93.20
60033;DHT22;45905;50.570;10.428;2023-08-08T10:30:58;17.60;93.30
60033;DHT22;45905;50.570;10.428;2023-08-08T10:33:33;17.60;93.20
60033;DHT22;45905;50.570;10.428;2023-08-08T10:36:08;17.70;92.70
60033;DHT22;45905;50.570;10.428;2023-08-08T10:41:14;17.90;92.10
60033;DHT22;45905;50.570;10.428;2023-08-08T10:43:54;18.00;92.00
60033;DHT22;45905;50.570;10.428;2023-08-08T10:46:26;18.40;90.90
60033;DHT22;45905;50.570;10.428;2023-08-08T10:49:04;18.10;90.90
60033;DHT22;45905;50.570;10.428;2023-08-08T10:51:40;18.10;90.60
60033;DHT22;45905;50.570;10.428;2023-08-08T10:54:14;18.00;91.10
60033;DHT22;45905;50.570;10.428;2023-08-08T10:56:54;20.40;92.70
60033;DHT22;45905;50.570;10.428;2023-08-08T10:59:26;17.80;90.30
60033;DHT22;45905;50.570;10.428;2023-08-08T11:02:04;17.90;90.50
60033;DHT22;45905;50.570;10.428;2023-08-08T11:04:32;18.00;90.80
60033;DHT22;45905;50.570;10.428;2023-08-08T11:07:01;17.90;91.00
60033;DHT22;45905;50.570;10.428;2023-08-08T11:09:29;17.80;91.00
60033;DHT22;45905;50.570;10.428;2023-08-08T11:11:57;17.80;91.20
60033;DHT22;45905;50.570;10.428;2023-08-08T11:14:25;17.90;91.40
60033;DHT22;45905;50.570;10.428;2023-08-08T11:16:53;17.80;91.60
60033;DHT22;45905;50.570;10.428;2023-08-08T11:19:21;21.10;92.90
60033;DHT22;45905;50.570;10.428;2023-08-08T11:21:50;17.80;91.60
60033;DHT22;45905;50.570;10.428;2023-08-08T11:24:18;17.90;90.90
60033;DHT22;45905;50.570;10.428;2023-08-08T11:26:45;17.80;91.90
60033;DHT22;45905;50.570;10.428;2023-08-08T11:29:14;17.80;91.30
60033;DHT22;45905;50.570;10.428;2023-08-08T11:31:42;17.80;91.00
60033;DHT22;45905;50.570;10.428;2023-08-08T11:34:09;17.80;91.40
60033;DHT22;45905;50.570;10.428;2023-08-08T11:36:39;21.30;93.70
60033;DHT22;45905;50.570;10.428;2023-08-08T11:39:07;17.60;90.90
60033;DHT22;45905;50.570;10.428;2023-08-08T11:41:38;17.50;90.80
60033;DHT22;45905;50.570;10.428;2023-08-08T11:44:10;17.40;91.40
60033;DHT22;45905;50.570;10.428;2023-08-08T11:46:44;17.50;91.70
60033;DHT22;45905;50.570;10.428;2023-08-08T11:49:16;19.10;92.80
60033;DHT22;45905;50.570;10.428;2023-08-08T11:51:45;18.10;92.30
60033;DHT22;45905;50.570;10.428;2023-08-08T11:54:13;17.40;91.60
60033;DHT22;45905;50.570;10.428;2023-08-08T11:56:41;17.50;91.70
60033;DHT22;45905;50.570;10.428;2023-08-08T11:59:09;17.50;91.60
60033;DHT22;45905;50.570;10.428;2023-08-08T12:01:37;17.60;91.30
60033;DHT22;45905;50.570;10.428;2023-08-08T12:04:07;14.50;90.50
60033;DHT22;45905;50.570;10.428;2023-08-08T12:06:37;17.50;91.90
60033;DHT22;45905;50.570;10.428;2023-08-08T12:09:07;17.50;91.90
60033;DHT22;45905;50.570;10.428;2023-08-08T12:11:35;17.50;92.90
60033;DHT22;45905;50.570;10.428;2023-08-08T12:14:06;17.40;92.00
60033;DHT22;45905;50.570;10.428;2023-08-08T12:16:37;15.70;91.70
60033;DHT22;45905;50.570;10.428;2023-08-08T12:19:08;17.60;92.10
60033;DHT22;45905;50.570;10.428;2023-08-08T12:21:39;17.60;92.00
60033;DHT22;45905;50.570;10.428;2023-08-08T12:24:07;17.80;92.40
60033;DHT22;45905;50.570;10.428;2023-08-08T12:26:35;17.80;92.00
60033;DHT22;45905;50.570;10.428;2023-08-08T12:29:02;17.80;92.10
60033;DHT22;45905;50.570;10.428;2023-08-08T12:31:30;17.90;92.10
60033;DHT22;45905;50.570;10.428;2023-08-08T12:33:57;18.00;92.10
60033;DHT22;45905;50.570;10.428;2023-08-08T12:36:24;18.10;91.50
60033;DHT22;45905;50.570;10.428;2023-08-08T12:38:51;18.20;91.00
60033;DHT22;45905;50.570;10.428;2023-08-08T12:41:18;18.30;91.40
60033;DHT22;45905;50.570;10.428;2023-08-08T12:43:46;18.50;91.00
60033;DHT22;45905;50.570;10.428;2023-08-08T12:46:13;18.10;89.50
60033;DHT22;45905;50.570;10.428;2023-08-08T12:48:41;18.20;89.70
60033;DHT22;45905;50.570;10.428;2023-08-08T12:51:08;18.30;90.00
60033;DHT22;45905;50.570;10.428;2023-08-08T12:53:37;18.20;90.20
60033;DHT22;45905;50.570;10.428;2023-08-08T12:56:04;18.20;90.30
60033;DHT22;45905;50.570;10.428;2023-08-08T12:58:31;18.20;90.60
60033;DHT22;45905;50.570;10.428;2023-08-08T13:00:59;18.00;90.30
60033;DHT22;45905;50.570;10.428;2023-08-08T13:03:26;18.00;90.60
60033;DHT22;45905;50.570;10.428;2023-08-08T13:05:53;17.80;90.30
60033;DHT22;45905;50.570;10.428;2023-08-08T13:08:21;18.00;90.60
60033;DHT22;45905;50.570;10.428;2023-08-08T13:10:48;18.00;90.40
60033;DHT22;45905;50.570;10.428;2023-08-08T13:13:15;17.70;90.50
60033;DHT22;45905;50.570;10.428;2023-08-08T13:15:42;17.60;90.80
60033;DHT22;45905;50.570;10.428;2023-08-08T13:25:33;17.50;90.70
60033;DHT22;45905;50.570;10.428;2023-08-08T13:28:02;17.50;90.70
60033;DHT22;45905;50.570;10.428;2023-08-08T13:30:30;17.40;90.70
60033;DHT22;45905;50.570;10.428;2023-08-08T13:32:57;17.40;91.00
60033;DHT22;45905;50.570;10.428;2023-08-08T13:35:27;17.60;90.80
60033;DHT22;45905;50.570;10.428;2023-08-08T13:37:54;21.50;92.40
60033;DHT22;45905;50.570;10.428;2023-08-08T13:42:49;17.40;90.10
60033;DHT22;45905;50.570;10.428;2023-08-08T13:45:18;17.30;90.10
60033;DHT22;45905;50.570;10.428;2023-08-08T13:47:47;17.40;91.10
60033;DHT22;45905;50.570;10.428;2023-08-08T13:50:14;17.70;90.20
60033;DHT22;45905;50.570;10.428;2023-08-08T13:52:42;17.30;90.30
60033;DHT22;45905;50.570;10.428;2023-08-08T13:55:09;17.40;90.30
60033;DHT22;45905;50.570;10.428;2023-08-08T14:00:05;17.50;91.00
60033;DHT22;45905;50.570;10.428;2023-08-08T14:02:33;17.40;90.40
60033;DHT22;45905;50.570;10.428;2023-08-08T14:05:01;17.30;90.50
60033;DHT22;45905;50.570;10.428;2023-08-08T14:07:29;17.30;89.90
60033;DHT22;45905;50.570;10.428;2023-08-08T14:09:56;18.70;90.70
60033;DHT22;45905;50.570;10.428;2023-08-08T14:12:23;17.50;90.30
60033;DHT22;45905;50.570;10.428;2023-08-08T14:14:51;17.50;90.60
60033;DHT22;45905;50.570;10.428;2023-08-08T14:17:18;17.40;90.00
60033;DHT22;45905;50.570;10.428;2023-08-08T14:19:45;17.40;89.50
60033;DHT22;45905;50.570;10.428;2023-08-08T14:22:12;17.40;89.40
60033;DHT22;45905;50.570;10.428;2023-08-08T14:24:41;17.50;89.50
60033;DHT22;45905;50.570;10.428;2023-08-08T14:27:09;17.60;89.80
60033;DHT22;45905;50.570;10.428;2023-08-08T14:29:37;17.40;90.10
60033;DHT22;45905;50.570;10.428;2023-08-08T14:32:05;17.40;90.00
60033;DHT22;45905;50.570;10.428;2023-08-08T14:34:33;17.60;90.20
60033;DHT22;45905;50.570;10.428;2023-08-08T14:37:01;17.50;90.00
60033;DHT22;45905;50.570;10.428;2023-08-08T14:39:28;22.40;92.40
60033;DHT22;45905;50.570;10.428;2023-08-08T14:41:56;17.60;90.20
60033;DHT22;45905;50.570;10.428;2023-08-08T14:44:24;17.60;90.10
60033;DHT22;45905;50.570;10.428;2023-08-08T14:46:51;17.70;89.40
60033;DHT22;45905;50.570;10.428;2023-08-08T14:49:18;17.80;89.40
60033;DHT22;45905;50.570;10.428;2023-08-08T14:51:45;17.70;90.10
60033;DHT22;45905;50.570;10.428;2023-08-08T14:54:13;17.80;89.60
60033;DHT22;45905;50.570;10.428;2023-08-08T14:56:40;17.70;88.60
60033;DHT22;45905;50.570;10.428;2023-08-08T14:59:07;17.80;88.50
60033;DHT22;45905;50.570;10.428;2023-08-08T15:01:35;17.80;89.40
60033;DHT22;45905;50.570;10.428;2023-08-08T15:04:02;17.90;89.50
60033;DHT22;45905;50.570;10.428;2023-08-08T15:06:30;17.60;89.70
60033;DHT22;45905;50.570;10.428;2023-08-08T15:08:57;17.60;88.80
60033;DHT22;45905;50.570;10.428;2023-08-08T15:11:25;17.60;89.80
60033;DHT22;45905;50.570;10.428;2023-08-08T15:13:52;17.60;90.20
60033;DHT22;45905;50.570;10.428;2023-08-08T15:16:19;17.20;90.00
60033;DHT22;45905;50.570;10.428;2023-08-08T15:18:46;17.60;90.20
60033;DHT22;45905;50.570;10.428;2023-08-08T15:21:14;17.50;90.20
60033;DHT22;45905;50.570;10.428;2023-08-08T15:26:15;17.90;90.40
60033;DHT22;45905;50.570;10.428;2023-08-08T15:28:49;18.40;90.60
60033;DHT22;45905;50.570;10.428;2023-08-08T15:31:17;17.40;90.10
60033;DHT22;45905;50.570;10.428;2023-08-08T15:33:44;17.30;90.40
60033;DHT22;45905;50.570;10.428;2023-08-08T15:36:12;17.30;90.50
60033;DHT22;45905;50.570;10.428;2023-08-08T15:38:40;17.30;90.50
60033;DHT22;45905;50.570;10.428;2023-08-08T15:46:03;17.20;90.10
60033;DHT22;45905;50.570;10.428;2023-08-08T15:48:30;17.30;90.10
60033;DHT22;45905;50.570;10.428;2023-08-08T15:50:59;17.20;90.40
60033;DHT22;45905;50.570;10.428;2023-08-08T15:53:27;17.10;90.30
60033;DHT22;45905;50.570;10.428;2023-08-08T15:55:55;17.20;90.60
60033;DHT22;45905;50.570;10.428;2023-08-08T15:58:23;17.10;90.70
60033;DHT22;45905;50.570;10.428;2023-08-08T16:00:51;17.10;90.60
60033;DHT22;45905;50.570;10.428;2023-08-08T16:03:18;17.10;90.70
60033;DHT22;45905;50.570;10.428;2023-08-08T16:05:46;20.50;92.50
60033;DHT22;45905;50.570;10.428;2023-08-08T16:08:13;17.10;90.90
60033;DHT22;45905;50.570;10.428;2023-08-08T16:10:43;17.10;90.90
60033;DHT22;45905;50.570;10.428;2023-08-08T16:13:10;17.00;90.80
60033;DHT22;45905;50.570;10.428;2023-08-08T16:15:37;17.00;91.00
60033;DHT22;45905;50.570;10.428;2023-08-08T16:18:04;16.90;91.20
60033;DHT22;45905;50.570;10.428;2023-08-08T16:20:32;16.60;91.00